createdAt,value
2022-08-19T00:01:59.004Z,-144.18
2022-08-19T00:04:31.386Z,-144.18
2022-08-19T00:06:59.377Z,-144.18
2022-08-19T00:09:26.944Z,-144.18
2022-08-19T00:11:56.545Z,-144.18
2022-08-19T00:14:25.239Z,-144.18
2022-08-19T00:16:55.380Z,-144.18
2022-08-19T00:19:23.300Z,-144.18
2022-08-19T00:21:50.127Z,-144.18
2022-08-19T00:24:17.256Z,-144.18
2022-08-19T00:26:46.240Z,-144.18
2022-08-19T00:29:17.267Z,-144.18
2022-08-19T00:31:45.259Z,-144.18
2022-08-19T00:34:14.255Z,-144.18
2022-08-19T00:36:44.006Z,-144.18
2022-08-19T00:39:11.678Z,-144.18
2022-08-19T00:41:38.521Z,-144.18
2022-08-19T00:44:13.772Z,-144.18
2022-08-19T00:46:45.610Z,-144.18
2022-08-19T00:49:32.546Z,-144.18
2022-08-19T00:52:19.542Z,-144.18
2022-08-19T00:54:52.067Z,-144.18
2022-08-19T00:57:27.862Z,-144.18
2022-08-19T01:00:01.781Z,-144.18
2022-08-19T01:02:31.621Z,-144.18
2022-08-19T01:04:58.736Z,-144.18
2022-08-19T01:07:25.776Z,-144.18
2022-08-19T01:09:53.056Z,-144.18
2022-08-19T01:12:20.264Z,-144.18
2022-08-19T01:14:48.709Z,-144.18
2022-08-19T01:17:17.043Z,-144.18
2022-08-19T01:19:47.643Z,-144.18
2022-08-19T01:22:52.935Z,-144.18
2022-08-19T01:25:27.297Z,-144.18
2022-08-19T01:27:56.522Z,-144.18
2022-08-19T01:30:34.859Z,-144.18
2022-08-19T01:33:03.027Z,-144.18
2022-08-19T01:35:32.606Z,-144.18
2022-08-19T01:38:08.619Z,-144.18
2022-08-19T01:40:39.325Z,-144.18
2022-08-19T01:43:06.942Z,-144.18
2022-08-19T01:45:35.602Z,-144.18
2022-08-19T01:48:02.770Z,-144.18
2022-08-19T01:50:32.613Z,-144.18
2022-08-19T01:53:06.192Z,-144.18
2022-08-19T01:55:40.591Z,-144.18
2022-08-19T01:58:19.691Z,-144.18
2022-08-19T02:00:46.722Z,-144.18
2022-08-19T02:03:13.699Z,-144.18
2022-08-19T02:05:42.459Z,-144.18
2022-08-19T02:08:10.558Z,-144.18
2022-08-19T02:10:44.327Z,-144.18
2022-08-19T02:13:12.750Z,-144.18
2022-08-19T02:15:39.679Z,-144.18
2022-08-19T02:18:07.233Z,-144.18
2022-08-19T02:20:34.869Z,-144.18
2022-08-19T02:23:02.246Z,-144.18
2022-08-19T02:25:29.164Z,-144.18
2022-08-19T02:27:55.788Z,-144.18
2022-08-19T02:30:23.292Z,-144.18
2022-08-19T02:32:49.914Z,-144.18
2022-08-19T02:35:16.654Z,-144.18
2022-08-19T02:38:02.875Z,-144.18
2022-08-19T02:40:35.271Z,-144.18
2022-08-19T02:43:06.051Z,-144.18
2022-08-19T02:45:35.294Z,-144.18
2022-08-19T02:48:02.398Z,-144.18
2022-08-19T02:50:32.946Z,-144.18
2022-08-19T02:52:59.729Z,-144.18
2022-08-19T02:55:26.361Z,-144.18
2022-08-19T02:57:52.973Z,-144.18
2022-08-19T03:00:19.803Z,-144.18
2022-08-19T03:02:47.760Z,-144.18
2022-08-19T03:05:14.600Z,-144.18
2022-08-19T03:07:41.210Z,-144.18
2022-08-19T03:10:08.716Z,-144.18
2022-08-19T03:12:39.929Z,-144.18
2022-08-19T03:15:08.727Z,-144.18
2022-08-19T03:17:36.348Z,-144.18
2022-08-19T03:20:04.904Z,-144.18
2022-08-19T03:22:31.595Z,-144.18
2022-08-19T03:24:58.267Z,-144.18
2022-08-19T03:27:24.945Z,-144.18
2022-08-19T03:29:56.731Z,-144.18
2022-08-19T03:32:33.003Z,-144.18
2022-08-19T03:35:00.093Z,-144.18
2022-08-19T03:37:27.118Z,-144.18
2022-08-19T03:39:53.841Z,-144.18
2022-08-19T03:42:38.914Z,-144.18
2022-08-19T03:45:08.408Z,-144.18
2022-08-19T03:47:35.056Z,-144.18
2022-08-19T03:50:01.733Z,-144.18
2022-08-19T03:52:28.356Z,-144.18
2022-08-19T03:54:55.034Z,-144.18
2022-08-19T03:57:21.706Z,-144.18
2022-08-19T03:59:54.493Z,-144.18
2022-08-19T04:02:30.856Z,-144.18
2022-08-19T04:04:57.427Z,-144.18
2022-08-19T04:07:24.034Z,-144.18
2022-08-19T04:09:52.876Z,-144.18
2022-08-19T04:12:21.164Z,-144.18
2022-08-19T04:14:48.289Z,-144.18
2022-08-19T04:17:15.000Z,-144.18
2022-08-19T04:19:43.818Z,-144.18
2022-08-19T04:22:12.153Z,-144.18
2022-08-19T04:24:38.781Z,-144.18
2022-08-19T04:27:07.016Z,-144.18
2022-08-19T04:29:34.640Z,-144.18
2022-08-19T04:32:08.974Z,-144.18
2022-08-19T04:34:37.577Z,-144.18
2022-08-19T04:37:25.266Z,-144.18
2022-08-19T04:40:10.691Z,-144.18
2022-08-19T04:42:40.064Z,-144.18
2022-08-19T04:45:14.777Z,-144.18
2022-08-19T04:47:46.845Z,-144.18
2022-08-19T04:50:15.905Z,-144.18
2022-08-19T04:52:43.733Z,-144.18
2022-08-19T04:55:11.944Z,-144.18
2022-08-19T04:57:41.146Z,-144.18
2022-08-19T05:00:10.070Z,-144.18
2022-08-19T05:02:36.968Z,-144.18
2022-08-19T05:05:04.419Z,-144.18
2022-08-19T05:07:31.766Z,-144.18
2022-08-19T05:09:59.307Z,-144.18
2022-08-19T05:12:29.310Z,-144.18
2022-08-19T05:14:59.077Z,-144.18
2022-08-19T05:17:29.659Z,-144.18
2022-08-19T05:20:24.565Z,-144.18
2022-08-19T05:22:51.284Z,-144.18
2022-08-19T05:25:20.690Z,-144.18
2022-08-19T05:27:48.581Z,-144.18
2022-08-19T05:30:16.786Z,-144.18
2022-08-19T05:32:44.483Z,-144.18
2022-08-19T05:35:12.507Z,-144.18
2022-08-19T05:37:41.250Z,-144.18
2022-08-19T05:40:09.931Z,-144.18
2022-08-19T05:42:36.801Z,-144.18
2022-08-19T05:45:05.309Z,-144.18
2022-08-19T05:47:32.943Z,-144.18
2022-08-19T05:49:59.851Z,-144.18
2022-08-19T05:52:27.591Z,-144.18
2022-08-19T05:54:56.585Z,-144.18
2022-08-19T05:57:25.417Z,-144.18
2022-08-19T05:59:58.109Z,-144.18
2022-08-19T06:02:26.457Z,-144.18
2022-08-19T06:04:53.127Z,-144.18
2022-08-19T06:07:20.378Z,-144.18
2022-08-19T06:09:58.878Z,-144.18
2022-08-19T06:12:33.718Z,-144.18
2022-08-19T06:15:03.037Z,-144.18
2022-08-19T06:17:31.350Z,-144.18
2022-08-19T06:19:59.221Z,-144.18
2022-08-19T06:22:25.879Z,-144.18
2022-08-19T06:24:54.535Z,-144.18
2022-08-19T06:27:22.188Z,-144.18
2022-08-19T06:29:49.203Z,-144.18
2022-08-19T06:32:19.731Z,-144.18
2022-08-19T06:34:46.876Z,-144.18
2022-08-19T06:37:14.531Z,-144.18
2022-08-19T06:39:44.205Z,-144.18
2022-08-19T06:42:14.327Z,-144.18
2022-08-19T06:44:48.285Z,-144.18
2022-08-19T06:47:28.514Z,-144.18
2022-08-19T06:50:05.570Z,-144.18
2022-08-19T06:52:35.069Z,-144.18
2022-08-19T06:55:06.349Z,-144.18
2022-08-19T06:57:34.534Z,-144.18
2022-08-19T07:00:01.256Z,-144.18
2022-08-19T07:02:28.076Z,-144.18
2022-08-19T07:04:54.986Z,-144.18
2022-08-19T07:07:23.104Z,-144.18
2022-08-19T07:09:58.438Z,-144.18
2022-08-19T07:12:31.129Z,-144.18
2022-08-19T07:14:59.040Z,-144.18
2022-08-19T07:17:28.089Z,-144.18
2022-08-19T07:19:54.929Z,-144.18
2022-08-19T07:22:23.812Z,-144.18
2022-08-19T07:24:52.616Z,-144.18
2022-08-19T07:27:24.505Z,-144.18
2022-08-19T07:29:57.376Z,-144.18
2022-08-19T07:32:27.730Z,-144.18
2022-08-19T07:34:56.812Z,-144.18
2022-08-19T07:37:32.586Z,-144.18
2022-08-19T07:40:01.507Z,-144.18
2022-08-19T07:42:30.522Z,-144.18
2022-08-19T07:44:57.841Z,-144.18
2022-08-19T07:47:49.048Z,-144.18
2022-08-19T07:50:12.535Z,-144.18
2022-08-19T07:52:40.602Z,-144.18
2022-08-19T07:55:40.491Z,-144.18
2022-08-19T07:57:57.836Z,-144.18
2022-08-19T08:00:24.922Z,-144.18
2022-08-19T08:02:55.273Z,-144.18
2022-08-19T08:05:43.996Z,-144.18
2022-08-19T08:08:32.125Z,-144.18
2022-08-19T08:10:59.923Z,-144.18
2022-08-19T08:13:28.090Z,-144.18
2022-08-19T08:15:56.080Z,-144.18
2022-08-19T08:18:27.499Z,-144.18
2022-08-19T08:20:56.775Z,-144.18
2022-08-19T08:23:26.730Z,-144.18
2022-08-19T08:25:57.758Z,-144.18
2022-08-19T08:28:25.788Z,-144.18
2022-08-19T08:30:53.165Z,-144.18
2022-08-19T08:33:33.779Z,-144.18
2022-08-19T08:36:10.667Z,-144.18
2022-08-19T08:38:40.513Z,-144.18
2022-08-19T08:41:29.414Z,-144.18
2022-08-19T08:43:58.047Z,-144.18
2022-08-19T08:46:50.289Z,-144.18
2022-08-19T08:49:43.595Z,-144.18
2022-08-19T08:52:37.153Z,-144.18
2022-08-19T08:55:14.672Z,-144.18
2022-08-19T08:57:51.552Z,-144.18
2022-08-19T09:00:27.574Z,-144.18
2022-08-19T09:02:56.531Z,-144.18
2022-08-19T09:05:27.618Z,-144.18
2022-08-19T09:08:27.976Z,-144.18
2022-08-19T09:10:58.222Z,-144.18
2022-08-19T09:13:43.015Z,-144.18
2022-08-19T09:16:27.826Z,-144.18
2022-08-19T09:19:04.163Z,-144.18
2022-08-19T09:21:34.304Z,-144.18
2022-08-19T09:24:03.446Z,-144.18
2022-08-19T09:26:47.420Z,-144.18
2022-08-19T09:29:18.933Z,-144.18
2022-08-19T09:31:45.735Z,-144.18
2022-08-19T09:34:21.423Z,-144.18
2022-08-19T09:36:55.392Z,-144.18
2022-08-19T09:39:22.747Z,-144.18
2022-08-19T09:41:50.794Z,-144.18
2022-08-19T09:44:18.979Z,-144.18
2022-08-19T09:46:48.003Z,-144.18
2022-08-19T09:49:16.148Z,-144.18
2022-08-19T09:51:50.327Z,-144.18
2022-08-19T09:54:19.335Z,-144.18
2022-08-19T09:56:50.820Z,-144.18
2022-08-19T09:59:17.493Z,-144.18
2022-08-19T10:01:44.166Z,-144.18
2022-08-19T10:04:19.941Z,-144.18
2022-08-19T10:06:48.548Z,-144.18
2022-08-19T10:09:33.533Z,-144.18
2022-08-19T10:12:02.926Z,-144.18
2022-08-19T10:14:30.066Z,-144.18
2022-08-19T10:16:57.465Z,-144.18
2022-08-19T10:19:26.420Z,-144.18
2022-08-19T10:21:55.706Z,-144.18
2022-08-19T10:24:28.652Z,-144.18
2022-08-19T10:26:59.048Z,-144.18
2022-08-19T10:29:33.526Z,-144.18
2022-08-19T10:32:09.806Z,-144.18
2022-08-19T10:34:48.903Z,-144.18
2022-08-19T10:37:23.914Z,-144.18
2022-08-19T10:39:56.045Z,-144.18
2022-08-19T10:42:22.892Z,-144.18
2022-08-19T10:44:49.571Z,-144.18
2022-08-19T10:47:25.352Z,-144.18
2022-08-19T10:50:13.215Z,-144.18
2022-08-19T10:52:50.744Z,-144.18
2022-08-19T10:55:43.558Z,-144.18
2022-08-19T10:58:16.558Z,-144.18
2022-08-19T11:00:44.900Z,-144.18
2022-08-19T11:03:12.233Z,-144.18
2022-08-19T11:05:40.212Z,-144.18
2022-08-19T11:08:23.465Z,-144.18
2022-08-19T11:11:00.113Z,-144.18
2022-08-19T11:13:27.262Z,-144.18
2022-08-19T11:16:07.465Z,-144.18
2022-08-19T11:18:40.672Z,-144.18
2022-08-19T11:21:24.136Z,-144.18
2022-08-19T11:23:54.679Z,-144.18
2022-08-19T11:26:22.239Z,-144.18
2022-08-19T11:28:49.830Z,-144.18
2022-08-19T11:31:22.919Z,-144.18
2022-08-19T11:33:52.359Z,-144.18
2022-08-19T11:36:21.393Z,-144.18
2022-08-19T11:38:50.379Z,-144.18
2022-08-19T11:41:20.542Z,-144.18
2022-08-19T11:43:47.545Z,-144.18
2022-08-19T11:46:17.016Z,-144.18
2022-08-19T11:48:44.635Z,-144.18
2022-08-19T11:51:21.314Z,-144.18
2022-08-19T11:53:49.144Z,-144.18
2022-08-19T11:56:15.787Z,-144.18
2022-08-19T11:58:45.556Z,-144.18
2022-08-19T12:01:16.876Z,-144.18
2022-08-19T12:03:46.266Z,-144.18
2022-08-19T12:06:28.294Z,-144.18
2022-08-19T12:08:57.855Z,-144.18
2022-08-19T12:11:25.421Z,-144.18
2022-08-19T12:13:52.336Z,-144.18
2022-08-19T12:16:25.040Z,-144.18
2022-08-19T12:18:52.164Z,-144.18
2022-08-19T12:21:26.102Z,-144.18
2022-08-19T12:23:55.827Z,-144.18
2022-08-19T12:26:25.397Z,-144.18
2022-08-19T12:28:52.442Z,-144.18
2022-08-19T12:31:20.572Z,-144.18
2022-08-19T12:33:48.360Z,-144.18
2022-08-19T12:36:17.045Z,-144.18
2022-08-19T12:38:45.023Z,-144.18
2022-08-19T12:41:16.309Z,-144.18
2022-08-19T12:43:43.117Z,-144.18
2022-08-19T12:46:11.479Z,-144.18
2022-08-19T12:48:40.210Z,-144.18
2022-08-19T12:51:15.909Z,-144.18
2022-08-19T12:53:43.494Z,-144.18
2022-08-19T12:56:12.872Z,-144.18
2022-08-19T12:58:40.070Z,-144.18
2022-08-19T13:01:15.853Z,-144.18
2022-08-19T13:03:47.217Z,-144.18
2022-08-19T13:06:15.912Z,-144.18
2022-08-19T13:08:46.550Z,-144.18
2022-08-19T13:11:18.408Z,-144.18
2022-08-19T13:13:48.291Z,-144.18
2022-08-19T13:16:16.116Z,-144.18
2022-08-19T13:18:45.422Z,-144.18
2022-08-19T13:21:13.927Z,-144.18
2022-08-19T13:23:41.936Z,-144.18
2022-08-19T13:26:11.634Z,-144.18
2022-08-19T13:28:57.060Z,-144.18
2022-08-19T13:31:45.922Z,-144.18
2022-08-19T13:34:13.654Z,-144.18
2022-08-19T13:36:40.519Z,-144.18
2022-08-19T13:39:09.482Z,-144.18
2022-08-19T13:41:37.898Z,-144.18
2022-08-19T13:44:07.175Z,-144.18
2022-08-19T13:46:33.918Z,-144.18
2022-08-19T13:49:00.875Z,-144.18
2022-08-19T13:51:27.747Z,-144.18
2022-08-19T13:53:55.454Z,-144.18
2022-08-19T13:56:26.035Z,-144.18
2022-08-19T13:58:54.286Z,-144.18
2022-08-19T14:01:25.532Z,-144.18
2022-08-19T14:03:52.442Z,-144.18
2022-08-19T14:06:19.420Z,-144.18
2022-08-19T14:08:46.839Z,-144.18
2022-08-19T14:11:13.910Z,-144.18
2022-08-19T14:13:40.647Z,-144.18
2022-08-19T14:16:14.441Z,-144.18
2022-08-19T14:18:42.148Z,-144.18
2022-08-19T14:21:15.363Z,-144.18
2022-08-19T14:23:41.989Z,-144.18
2022-08-19T14:26:13.142Z,-144.18
2022-08-19T14:28:43.629Z,-144.18
2022-08-19T14:31:17.725Z,-144.18
2022-08-19T14:33:44.369Z,-144.18
2022-08-19T14:36:10.970Z,-144.18
2022-08-19T14:38:37.896Z,-144.18
2022-08-19T14:41:18.270Z,-144.18
2022-08-19T14:43:47.347Z,-144.18
2022-08-19T14:46:16.982Z,-144.18
2022-08-19T14:48:44.058Z,-144.18
2022-08-19T14:51:10.804Z,-144.18
2022-08-19T14:53:37.856Z,-144.18
2022-08-19T14:56:14.045Z,-144.18
2022-08-19T14:58:43.258Z,-144.18
2022-08-19T15:01:12.014Z,-144.18
2022-08-19T15:03:40.290Z,-144.18
2022-08-19T15:06:08.029Z,-144.18
2022-08-19T15:08:37.877Z,-144.18
2022-08-19T15:11:10.799Z,-144.18
2022-08-19T15:13:37.965Z,-144.18
2022-08-19T15:16:05.196Z,-144.18
2022-08-19T15:18:33.528Z,-144.18
2022-08-19T15:21:00.237Z,-144.18
2022-08-19T15:23:26.953Z,-144.18
2022-08-19T15:25:55.795Z,-144.18
2022-08-19T15:28:25.207Z,-144.18
2022-08-19T15:30:52.632Z,-144.18
2022-08-19T15:33:20.737Z,-144.18
2022-08-19T15:35:49.859Z,-144.18
2022-08-19T15:38:19.873Z,-144.18
2022-08-19T15:40:48.669Z,-144.18
2022-08-19T15:43:17.309Z,-144.18
2022-08-19T15:45:49.393Z,-144.18
2022-08-19T15:48:16.305Z,-144.18
2022-08-19T15:50:43.021Z,-144.18
2022-08-19T15:53:10.869Z,-144.18
2022-08-19T15:55:45.440Z,-144.18
2022-08-19T15:58:32.931Z,-144.18
2022-08-19T16:01:27.238Z,-144.18
2022-08-19T16:04:16.363Z,-144.18
2022-08-19T16:06:58.719Z,-144.18
2022-08-19T16:09:30.196Z,-144.18
2022-08-19T16:12:03.509Z,-144.18
2022-08-19T16:14:33.513Z,-144.18
2022-08-19T16:17:00.166Z,-144.18
2022-08-19T16:19:27.369Z,-144.18
2022-08-19T16:21:56.764Z,-144.18
2022-08-19T16:24:28.037Z,-144.18
2022-08-19T16:26:56.533Z,-144.18
2022-08-19T16:29:33.711Z,-144.18
2022-08-19T16:32:10.768Z,-144.18
2022-08-19T16:34:40.560Z,-144.18
2022-08-19T16:37:07.909Z,-144.18
2022-08-19T16:39:34.613Z,-144.18
2022-08-19T16:42:01.388Z,-144.18
2022-08-19T16:44:29.914Z,-144.18
2022-08-19T16:46:59.755Z,-144.18
2022-08-19T16:49:54.042Z,-144.18
2022-08-19T16:52:19.169Z,-144.18
2022-08-19T16:54:46.165Z,-144.18
2022-08-19T16:57:13.460Z,-144.18
2022-08-19T16:59:43.838Z,-144.18
2022-08-19T17:02:18.266Z,-144.18
2022-08-19T17:04:57.681Z,-144.18
2022-08-19T17:07:28.235Z,-144.18
2022-08-19T17:09:56.216Z,-144.18
2022-08-19T17:12:30.638Z,-144.18
2022-08-19T17:14:58.672Z,-144.18
2022-08-19T17:17:28.897Z,-144.18
2022-08-19T17:19:56.288Z,-144.18
2022-08-19T17:22:22.930Z,-144.18
2022-08-19T17:24:49.602Z,-144.18
2022-08-19T17:27:16.272Z,-144.18
2022-08-19T17:29:46.870Z,-144.18
2022-08-19T17:32:14.466Z,-144.18
2022-08-19T17:34:41.119Z,-144.18
2022-08-19T17:37:07.868Z,-144.18
2022-08-19T17:39:39.645Z,-144.18
2022-08-19T17:42:08.236Z,-144.18
2022-08-19T17:44:36.588Z,-144.18
2022-08-19T17:47:04.484Z,-144.18
2022-08-19T17:49:32.693Z,-144.18
2022-08-19T17:52:00.534Z,-144.18
2022-08-19T17:54:33.557Z,-144.18
2022-08-19T17:57:01.430Z,-144.18
2022-08-19T17:59:30.002Z,-144.18
2022-08-19T18:01:57.719Z,-144.18
2022-08-19T18:04:25.975Z,-144.18
2022-08-19T18:06:55.306Z,-144.18
2022-08-19T18:09:30.052Z,-144.18
2022-08-19T18:12:13.848Z,-144.18
2022-08-19T18:14:42.091Z,-144.18
2022-08-19T18:17:17.248Z,-144.18
2022-08-19T18:19:45.831Z,-144.18
2022-08-19T18:22:35.420Z,-144.18
2022-08-19T18:25:13.604Z,-144.18
2022-08-19T18:27:41.248Z,-144.18
2022-08-19T18:30:10.325Z,-144.18
2022-08-19T18:32:39.422Z,-144.18
2022-08-19T18:35:12.858Z,-144.18
2022-08-19T18:37:44.186Z,-144.18
2022-08-19T18:40:37.969Z,-144.18
2022-08-19T18:43:24.971Z,-144.18
2022-08-19T18:46:10.216Z,-144.18
2022-08-19T18:48:56.630Z,-144.18
2022-08-19T18:51:28.405Z,-144.18
2022-08-19T18:53:58.833Z,-144.18
2022-08-19T18:56:32.272Z,-144.18
2022-08-19T18:59:00.319Z,-144.18
2022-08-19T19:01:39.471Z,-144.18
2022-08-19T19:04:11.896Z,-144.18
2022-08-19T19:06:42.561Z,-144.18
2022-08-19T19:09:13.572Z,-144.18
2022-08-19T19:11:46.439Z,-144.18
2022-08-19T19:14:45.651Z,-144.18
2022-08-19T19:17:13.915Z,-144.18
2022-08-19T19:19:42.836Z,-144.18
2022-08-19T19:22:17.365Z,-144.18
2022-08-19T19:24:44.270Z,-144.18
2022-08-19T19:27:13.088Z,-144.18
2022-08-19T19:29:40.898Z,-144.18
2022-08-19T19:32:11.500Z,-144.18
2022-08-19T19:34:39.179Z,-144.18
2022-08-19T19:37:06.145Z,-144.18
2022-08-19T21:58:16.385Z,18.03
2022-08-19T22:00:43.037Z,19.16
2022-08-19T22:03:09.790Z,20.87
2022-08-19T22:05:36.496Z,21.60
2022-08-19T22:08:04.591Z,21.46
2022-08-19T22:10:33.937Z,22.18
2022-08-19T22:13:00.962Z,23.18
2022-08-19T22:15:29.894Z,23.64
2022-08-19T22:17:58.534Z,23.27
2022-08-19T22:20:29.312Z,23.36
2022-08-19T22:23:01.653Z,23.42
2022-08-19T22:25:42.978Z,22.41
2022-08-19T22:28:13.511Z,21.77
2022-08-19T22:30:43.574Z,22.20
2022-08-19T22:33:15.817Z,21.96
2022-08-19T22:35:44.420Z,22.35
2022-08-19T22:38:12.979Z,23.72
2022-08-19T22:40:46.088Z,24.61
2022-08-19T22:43:23.968Z,24.43
2022-08-19T22:45:53.167Z,23.26
2022-08-19T22:48:23.567Z,23.13
2022-08-19T22:51:10.147Z,22.71
2022-08-19T22:53:41.590Z,22.51
2022-08-19T22:56:15.080Z,23.01
2022-08-19T22:58:42.347Z,23.33
2022-08-19T23:01:14.686Z,23.02
2022-08-19T23:03:57.355Z,23.12
2022-08-19T23:06:25.245Z,23.30
2022-08-19T23:09:00.056Z,22.75
2022-08-19T23:11:26.971Z,21.74
2022-08-19T23:13:53.750Z,22.50
2022-08-19T23:16:20.672Z,21.80
2022-08-19T23:18:48.106Z,21.24
2022-08-19T23:21:14.986Z,21.87
2022-08-19T23:23:41.610Z,21.75
2022-08-19T23:26:11.919Z,22.03
2022-08-19T23:28:57.331Z,21.74
2022-08-19T23:31:26.613Z,21.45
2022-08-19T23:33:53.386Z,-144.18
2022-08-19T23:36:22.661Z,-144.18
2022-08-19T23:38:52.229Z,-144.18
2022-08-19T23:41:21.805Z,-144.18
2022-08-19T23:43:50.767Z,-144.18
2022-08-19T23:46:27.276Z,-144.18
2022-08-19T23:48:55.595Z,-144.18
2022-08-19T23:51:22.646Z,-144.18
2022-08-19T23:53:49.275Z,-144.18
2022-08-19T23:56:15.983Z,-144.18
2022-08-19T23:58:42.686Z,-144.18
